Terminal Aerodrome Forecast
Issued by NWS

Home | Current Version | Previous Version | Text Only | Print | Product List | Glossary On
Versions: 1 2 3 4 5 6 7 8 9 10 11 12 13 14 15 16 17 18 19 20 21 22 23 24 25 26
000
FTUS43 KGRR 220800 AAA
TAFAZO
TAF AMD
KAZO 220818Z 2208/2306 00000KT 1/4SM FG VV002
     FM221300 15002KT 2SM BR OVC004
     FM221600 20005KT 5SM HZ BKN050=

USA.gov is the U.S. government's official web portal to all federal, state and local government web resources and services.